LEBZ

Details ICAO LEBZ (BJZ)
Name Talavera La Real
Region Spain
Timezone Europe/Madrid (UTC+1.0)
Plans Departing 51
Arriving 49
Stats Elevation 609 ft / 186 m (AMSL)
Location 38.891271° -6.821256°
Runways 1
Magnetic Variation 1.620° W
Sunrise 2017-12-13 07:38:43 UTC / 2017-12-13 08:38:43 Local
Sunset 2017-12-13 17:07:07 UTC / 2017-12-13 18:07:07 Local
Advertisement - Login to hide

Runways

ID Width Length Bearing (true) Bearing (mag) Surface Threshold Offset Overrun Length
13 197 ft / 60 m 9,350 ft / 2,850 m 125.72° 127.34° Asphalt 0 ft / 0 m 980 ft / 299 m
31 197 ft / 60 m 9,350 ft / 2,850 m 305.74° 307.36° Asphalt 0 ft / 0 m 980 ft / 299 m

Approach Navaids

Runway Type Ident Frequency Range Bearing (true) Bearing (mag) Slope Elevation
31 Localiser ITL 110.50 MHz 18 nm / 33 km 305.70° 307.32° - 609 ft / 186 m (AMSL)
31 Glidescope ITL 110.50 MHz 10 nm / 19 km 305.73° 307.35° 3.00° 609 ft / 186 m (AMSL)
31 DME ITL 110.50 MHz 18 nm / 33 km - - - 639 ft / 195 m (AMSL)

Map

Weather


0- 5 10 15 20 25 30 35+ Temperature / ° C

Clouds and Precipitation
Forecast for 2017-12-13 06:00 UTC. Updated 35 minutes ago

Ground ~20,000 ft ~40,000 ft Winds

METAR

Not found

TAF

TAF LEBZ 130500Z 1306/1406 VRB02KT CAVOK TX13/1315Z TN02/1308Z

Frequencies

Tower 122.10 MHz BADAJOZ TWR
Warning: Do not use this data for real-world aviation or navigation. No guarantee of current accuracy is given.